Killen, Alabama
Current Conditions -  °F | °C
As of 11:53 PM on Wednesday 17 Dec 2014 (Local Time) from KMSL Reporting Station
Overcast Overcast  
Wind Chill: 37°   Ceiling: 10000
Heat Index: 40°   Visibility: 10mi
Dew Point: 32°   Wind: 5mph
Humidity: 73%   Direction: 50°NE
Pressure: 30.23"   Gusts: NA
Location:  34.86°N, 87.54°W
Report Text: KMSL 180553Z AUTO 05004KT 10SM OVC100 04/00 A3023 RMK AO2 SLP237 T00440000 10061 20039 400830039 58006
Loading
Personal Weather Stations






























Interactive Weather Map New forecast layout! Learn more

10-Day Weather Forecast

Advertisements
Track Severe Weather on mobile